sensor_id;sensor_type;location;lat;lon;timestamp;pressure;altitude;pressure_sealevel;temperature;humidity
11643;BME280;5877;50.930;6.918;2022-10-22T00:01:08;100362.09;;;13.26;88.52
11643;BME280;5877;50.930;6.918;2022-10-22T00:03:34;100198.66;;;12.24;88.44
11643;BME280;5877;50.930;6.918;2022-10-22T00:06:02;100426.78;;;13.74;88.57
11643;BME280;5877;50.930;6.918;2022-10-22T00:08:29;99928.47;;;10.64;88.25
11643;BME280;5877;50.930;6.918;2022-10-22T00:10:56;100186.19;;;12.19;88.08
11643;BME280;5877;50.930;6.918;2022-10-22T00:13:23;100212.25;;;12.32;88.15
11643;BME280;5877;50.930;6.918;2022-10-22T00:15:50;100414.69;;;13.61;88.39
11643;BME280;5877;50.930;6.918;2022-10-22T00:18:17;100336.59;;;13.03;88.17
11643;BME280;5877;50.930;6.918;2022-10-22T00:20:45;100191.34;;;12.26;88.28
11643;BME280;5877;50.930;6.918;2022-10-22T00:23:12;100359.22;;;13.27;88.19
11643;BME280;5877;50.930;6.918;2022-10-22T00:25:42;100377.63;;;13.39;88.34
11643;BME280;5877;50.930;6.918;2022-10-22T00:28:08;100249.72;;;12.63;88.12
11643;BME280;5877;50.930;6.918;2022-10-22T00:30:37;100330.72;;;13.13;87.87
11643;BME280;5877;50.930;6.918;2022-10-22T00:33:03;100229.63;;;12.45;87.96
11643;BME280;5877;50.930;6.918;2022-10-22T00:35:30;100036.34;;;11.21;87.95
11643;BME280;5877;50.930;6.918;2022-10-22T00:37:57;100488.34;;;14.08;88.19
11643;BME280;5877;50.930;6.918;2022-10-22T00:40:25;100306.50;;;12.99;87.69
11643;BME280;5877;50.930;6.918;2022-10-22T00:42:53;100070.59;;;11.49;87.69
11643;BME280;5877;50.930;6.918;2022-10-22T00:45:23;100314.09;;;13.12;87.86
11643;BME280;5877;50.930;6.918;2022-10-22T00:48:22;100477.06;;;14.12;87.90
11643;BME280;5877;50.930;6.918;2022-10-22T00:53:28;100115.81;;;11.86;87.56
11643;BME280;5877;50.930;6.918;2022-10-22T00:55:57;100290.84;;;13.09;87.77
11643;BME280;5877;50.930;6.918;2022-10-22T00:58:27;100149.06;;;12.04;87.57
11643;BME280;5877;50.930;6.918;2022-10-22T01:00:55;100229.25;;;12.53;87.75
11643;BME280;5877;50.930;6.918;2022-10-22T01:03:22;100454.50;;;14.05;87.82
11643;BME280;5877;50.930;6.918;2022-10-22T01:05:58;100193.84;;;12.21;87.74
11643;BME280;5877;50.930;6.918;2022-10-22T01:08:35;100478.34;;;14.10;87.86
11643;BME280;5877;50.930;6.918;2022-10-22T01:11:31;100169.03;;;12.28;87.87
11643;BME280;5877;50.930;6.918;2022-10-22T01:14:35;100253.25;;;12.97;87.29
11643;BME280;5877;50.930;6.918;2022-10-22T01:17:19;100454.13;;;14.13;87.55
11643;BME280;5877;50.930;6.918;2022-10-22T01:20:17;100142.06;;;12.10;87.40
11643;BME280;5877;50.930;6.918;2022-10-22T01:25:37;100327.53;;;13.39;87.58
11643;BME280;5877;50.930;6.918;2022-10-22T01:28:47;100408.97;;;13.81;87.87
11643;BME280;5877;50.930;6.918;2022-10-22T01:31:18;100216.94;;;12.71;87.54
11643;BME280;5877;50.930;6.918;2022-10-22T01:33:48;100137.84;;;12.09;87.26
11643;BME280;5877;50.930;6.918;2022-10-22T01:36:17;100373.69;;;13.70;87.50
11643;BME280;5877;50.930;6.918;2022-10-22T01:38:45;100185.06;;;12.55;87.36
11643;BME280;5877;50.930;6.918;2022-10-22T01:41:13;100299.22;;;13.18;87.63
11643;BME280;5877;50.930;6.918;2022-10-22T01:43:40;100401.38;;;13.84;87.62
11643;BME280;5877;50.930;6.918;2022-10-22T01:46:09;99989.19;;;11.14;87.43
11643;BME280;5877;50.930;6.918;2022-10-22T01:51:58;100016.91;;;11.45;87.15
11643;BME280;5877;50.930;6.918;2022-10-22T01:54:38;100447.88;;;14.19;87.66
11643;BME280;5877;50.930;6.918;2022-10-22T01:59:51;100449.72;;;14.18;87.82
11643;BME280;5877;50.930;6.918;2022-10-22T02:02:38;100446.75;;;14.15;87.96
11643;BME280;5877;50.930;6.918;2022-10-22T02:08:05;100173.34;;;12.34;87.66
11643;BME280;5877;50.930;6.918;2022-10-22T02:10:37;99944.22;;;10.87;87.47
11643;BME280;5877;50.930;6.918;2022-10-22T02:13:09;100467.97;;;14.20;87.98
11643;BME280;5877;50.930;6.918;2022-10-22T02:15:38;100267.13;;;12.92;87.79
11643;BME280;5877;50.930;6.918;2022-10-22T02:18:08;100209.31;;;12.57;87.64
11643;BME280;5877;50.930;6.918;2022-10-22T02:20:37;100179.75;;;12.39;87.88
11643;BME280;5877;50.930;6.918;2022-10-22T02:23:08;100271.63;;;13.09;87.61
11643;BME280;5877;50.930;6.918;2022-10-22T02:25:42;100447.63;;;14.20;87.68
11643;BME280;5877;50.930;6.918;2022-10-22T02:28:21;100448.69;;;14.19;87.96
11643;BME280;5877;50.930;6.918;2022-10-22T02:30:53;100271.69;;;12.97;88.05
11643;BME280;5877;50.930;6.918;2022-10-22T02:33:25;100143.31;;;12.19;87.73
11643;BME280;5877;50.930;6.918;2022-10-22T02:35:54;100462.59;;;14.15;88.04
11643;BME280;5877;50.930;6.918;2022-10-22T02:38:22;100454.13;;;14.13;88.05
11643;BME280;5877;50.930;6.918;2022-10-22T02:40:50;100044.06;;;11.51;87.67
11643;BME280;5877;50.930;6.918;2022-10-22T02:43:18;100418.72;;;13.80;88.15
11643;BME280;5877;50.930;6.918;2022-10-22T02:45:45;100471.84;;;14.01;88.33
11643;BME280;5877;50.930;6.918;2022-10-22T02:48:13;100446.41;;;13.94;88.70
11643;BME280;5877;50.930;6.918;2022-10-22T02:50:39;100241.84;;;12.51;88.84
11643;BME280;5877;50.930;6.918;2022-10-22T02:53:07;100209.97;;;12.24;88.95
11643;BME280;5877;50.930;6.918;2022-10-22T02:55:34;100264.59;;;12.57;89.08
11643;BME280;5877;50.930;6.918;2022-10-22T02:58:00;100420.25;;;13.48;88.77
11643;BME280;5877;50.930;6.918;2022-10-22T03:00:28;100121.44;;;11.55;88.99
11643;BME280;5877;50.930;6.918;2022-10-22T03:02:55;100359.19;;;12.99;89.21
11643;BME280;5877;50.930;6.918;2022-10-22T03:05:22;100471.44;;;13.63;89.80
11643;BME280;5877;50.930;6.918;2022-10-22T03:07:49;100209.81;;;11.91;89.70
11643;BME280;5877;50.930;6.918;2022-10-22T03:10:15;99937.09;;;10.18;89.71
11643;BME280;5877;50.930;6.918;2022-10-22T03:12:42;100137.19;;;11.43;89.74
11643;BME280;5877;50.930;6.918;2022-10-22T03:15:09;100136.84;;;11.39;90.00
11643;BME280;5877;50.930;6.918;2022-10-22T03:17:36;100198.72;;;11.77;90.25
11643;BME280;5877;50.930;6.918;2022-10-22T03:20:03;100178.09;;;11.51;90.39
11643;BME280;5877;50.930;6.918;2022-10-22T03:22:32;100243.19;;;11.90;90.44
11643;BME280;5877;50.930;6.918;2022-10-22T03:25:03;100326.91;;;12.28;91.04
11643;BME280;5877;50.930;6.918;2022-10-22T03:27:34;100448.38;;;13.07;90.91
11643;BME280;5877;50.930;6.918;2022-10-22T03:30:03;100252.63;;;11.68;90.79
11643;BME280;5877;50.930;6.918;2022-10-22T03:32:30;100127.81;;;11.12;91.08
11643;BME280;5877;50.930;6.918;2022-10-22T03:34:57;100289.84;;;12.07;91.37
11643;BME280;5877;50.930;6.918;2022-10-22T03:37:29;100082.06;;;10.66;90.75
11643;BME280;5877;50.930;6.918;2022-10-22T03:39:57;100225.53;;;11.56;91.54
11643;BME280;5877;50.930;6.918;2022-10-22T03:42:24;99967.22;;;9.85;91.67
11643;BME280;5877;50.930;6.918;2022-10-22T03:44:51;100221.19;;;11.50;91.77
11643;BME280;5877;50.930;6.918;2022-10-22T03:47:18;100108.47;;;10.83;91.83
11643;BME280;5877;50.930;6.918;2022-10-22T03:49:46;100277.25;;;11.85;91.78
11643;BME280;5877;50.930;6.918;2022-10-22T03:52:13;100288.94;;;12.01;92.17
11643;BME280;5877;50.930;6.918;2022-10-22T03:54:40;100022.22;;;10.22;91.56
11643;BME280;5877;50.930;6.918;2022-10-22T03:57:09;100493.88;;;13.26;92.22
11643;BME280;5877;50.930;6.918;2022-10-22T03:59:39;100315.59;;;12.16;91.99
11643;BME280;5877;50.930;6.918;2022-10-22T04:02:06;100495.72;;;13.25;92.18
11643;BME280;5877;50.930;6.918;2022-10-22T04:04:34;100079.69;;;10.77;92.08
11643;BME280;5877;50.930;6.918;2022-10-22T04:07:01;100293.16;;;11.90;91.88
11643;BME280;5877;50.930;6.918;2022-10-22T04:09:32;100301.84;;;12.02;91.86
11643;BME280;5877;50.930;6.918;2022-10-22T04:12:00;100276.63;;;11.60;91.77
11643;BME280;5877;50.930;6.918;2022-10-22T04:14:26;100290.50;;;11.79;91.41
11643;BME280;5877;50.930;6.918;2022-10-22T04:16:53;100376.00;;;12.34;91.90
11643;BME280;5877;50.930;6.918;2022-10-22T04:19:21;100282.34;;;11.68;91.94
11643;BME280;5877;50.930;6.918;2022-10-22T04:21:47;100323.69;;;11.91;91.81
11643;BME280;5877;50.930;6.918;2022-10-22T04:24:15;100507.97;;;13.08;92.16
11643;BME280;5877;50.930;6.918;2022-10-22T04:26:42;100443.19;;;12.60;92.29
11643;BME280;5877;50.930;6.918;2022-10-22T04:29:10;100514.88;;;12.97;92.23
11643;BME280;5877;50.930;6.918;2022-10-22T04:31:42;100345.84;;;11.84;92.37
11643;BME280;5877;50.930;6.918;2022-10-22T04:34:08;100334.72;;;11.70;92.44
11643;BME280;5877;50.930;6.918;2022-10-22T04:36:35;100228.38;;;11.01;92.63
11643;BME280;5877;50.930;6.918;2022-10-22T04:39:03;100368.94;;;11.82;92.38
11643;BME280;5877;50.930;6.918;2022-10-22T04:41:35;100526.66;;;12.83;92.67
11643;BME280;5877;50.930;6.918;2022-10-22T04:44:03;100369.56;;;11.65;92.50
11643;BME280;5877;50.930;6.918;2022-10-22T04:46:32;100361.16;;;11.45;92.48
11643;BME280;5877;50.930;6.918;2022-10-22T04:49:00;100240.84;;;10.76;92.52
11643;BME280;5877;50.930;6.918;2022-10-22T04:51:29;100481.81;;;12.25;92.56
11643;BME280;5877;50.930;6.918;2022-10-22T04:53:57;100420.50;;;11.83;92.49
11643;BME280;5877;50.930;6.918;2022-10-22T04:56:26;100536.25;;;12.54;93.05
11643;BME280;5877;50.930;6.918;2022-10-22T04:58:55;100292.78;;;11.03;93.06
11643;BME280;5877;50.930;6.918;2022-10-22T05:01:30;100303.53;;;10.84;93.29
11643;BME280;5877;50.930;6.918;2022-10-22T05:03:59;100264.69;;;10.74;93.25
11643;BME280;5877;50.930;6.918;2022-10-22T05:06:28;100306.31;;;10.89;93.08
11643;BME280;5877;50.930;6.918;2022-10-22T05:08:57;100375.31;;;11.44;93.41
11643;BME280;5877;50.930;6.918;2022-10-22T05:11:27;100317.38;;;11.09;93.05
11643;BME280;5877;50.930;6.918;2022-10-22T05:13:55;100468.56;;;11.90;93.20
11643;BME280;5877;50.930;6.918;2022-10-22T05:16:23;100403.13;;;11.52;93.39
11643;BME280;5877;50.930;6.918;2022-10-22T05:18:51;100239.34;;;10.50;93.10
11643;BME280;5877;50.930;6.918;2022-10-22T05:21:20;100280.31;;;10.69;92.73
11643;BME280;5877;50.930;6.918;2022-10-22T05:23:48;100378.94;;;11.13;92.85
11643;BME280;5877;50.930;6.918;2022-10-22T05:26:20;100558.03;;;12.31;92.69
11643;BME280;5877;50.930;6.918;2022-10-22T05:28:48;100562.28;;;12.32;93.21
11643;BME280;5877;50.930;6.918;2022-10-22T05:31:15;100461.00;;;11.63;93.33
11643;BME280;5877;50.930;6.918;2022-10-22T05:33:42;100445.38;;;11.50;93.32
11643;BME280;5877;50.930;6.918;2022-10-22T05:36:14;100352.69;;;10.95;93.22
11643;BME280;5877;50.930;6.918;2022-10-22T05:38:42;100203.13;;;9.85;92.80
11643;BME280;5877;50.930;6.918;2022-10-22T05:41:11;100480.66;;;11.43;92.71
11643;BME280;5877;50.930;6.918;2022-10-22T05:43:38;100582.94;;;12.17;93.57
11643;BME280;5877;50.930;6.918;2022-10-22T05:46:19;100580.66;;;12.21;93.96
11643;BME280;5877;50.930;6.918;2022-10-22T05:48:56;100104.16;;;9.19;93.42
11643;BME280;5877;50.930;6.918;2022-10-22T05:51:25;100399.44;;;11.04;93.33
11643;BME280;5877;50.930;6.918;2022-10-22T05:53:57;100601.25;;;12.24;93.53
11643;BME280;5877;50.930;6.918;2022-10-22T05:56:25;100417.47;;;11.01;93.49
11643;BME280;5877;50.930;6.918;2022-10-22T05:58:52;100442.91;;;11.37;93.65
11643;BME280;5877;50.930;6.918;2022-10-22T06:01:25;100074.59;;;8.94;93.48
11643;BME280;5877;50.930;6.918;2022-10-22T06:03:54;100097.75;;;9.15;93.26
11643;BME280;5877;50.930;6.918;2022-10-22T06:06:37;100609.25;;;12.47;93.69
11643;BME280;5877;50.930;6.918;2022-10-22T06:11:32;100613.53;;;12.60;93.58
11643;BME280;5877;50.930;6.918;2022-10-22T06:14:01;100341.91;;;10.85;93.14
11643;BME280;5877;50.930;6.918;2022-10-22T06:16:29;100180.97;;;9.81;93.20
11643;BME280;5877;50.930;6.918;2022-10-22T06:18:58;100243.25;;;10.29;92.85
11643;BME280;5877;50.930;6.918;2022-10-22T06:21:27;100439.25;;;11.56;92.88
11643;BME280;5877;50.930;6.918;2022-10-22T06:23:56;100212.59;;;10.04;92.30
11643;BME280;5877;50.930;6.918;2022-10-22T06:26:24;100563.22;;;12.38;92.14
11643;BME280;5877;50.930;6.918;2022-10-22T06:28:51;100568.78;;;12.30;92.07
11643;BME280;5877;50.930;6.918;2022-10-22T06:31:19;100320.75;;;10.80;92.00
11643;BME280;5877;50.930;6.918;2022-10-22T06:33:45;100447.31;;;11.73;91.66
11643;BME280;5877;50.930;6.918;2022-10-22T06:36:16;100652.69;;;12.98;91.39
11643;BME280;5877;50.930;6.918;2022-10-22T06:38:43;100518.75;;;12.18;91.21
11643;BME280;5877;50.930;6.918;2022-10-22T06:41:13;100445.34;;;11.68;90.88
11643;BME280;5877;50.930;6.918;2022-10-22T06:43:42;100289.13;;;10.74;90.02
11643;BME280;5877;50.930;6.918;2022-10-22T06:46:15;100364.47;;;11.22;89.34
11643;BME280;5877;50.930;6.918;2022-10-22T06:48:51;100455.38;;;11.78;89.07
11643;BME280;5877;50.930;6.918;2022-10-22T06:51:18;100669.97;;;13.06;89.00
11643;BME280;5877;50.930;6.918;2022-10-22T06:53:46;100353.63;;;11.00;88.42
11643;BME280;5877;50.930;6.918;2022-10-22T06:56:15;100678.31;;;13.02;88.18
11643;BME280;5877;50.930;6.918;2022-10-22T06:58:46;100680.94;;;13.02;88.24
11643;BME280;5877;50.930;6.918;2022-10-22T07:01:15;100411.63;;;11.35;87.92
11643;BME280;5877;50.930;6.918;2022-10-22T07:03:42;100254.38;;;10.43;87.71
11643;BME280;5877;50.930;6.918;2022-10-22T07:06:12;100470.75;;;11.75;87.21
11643;BME280;5877;50.930;6.918;2022-10-22T07:08:40;100557.59;;;12.34;87.71
11643;BME280;5877;50.930;6.918;2022-10-22T07:11:10;100691.22;;;13.22;87.29
11643;BME280;5877;50.930;6.918;2022-10-22T07:13:37;100667.94;;;13.19;86.22
11643;BME280;5877;50.930;6.918;2022-10-22T07:16:05;100660.28;;;13.88;84.43
11643;BME280;5877;50.930;6.918;2022-10-22T07:18:33;100699.75;;;14.35;81.92
11643;BME280;5877;50.930;6.918;2022-10-22T07:21:01;100702.72;;;14.50;80.33
11643;BME280;5877;50.930;6.918;2022-10-22T07:23:28;100642.13;;;14.72;78.63
11643;BME280;5877;50.930;6.918;2022-10-22T07:25:55;100478.28;;;14.88;72.81
11643;BME280;5877;50.930;6.918;2022-10-22T07:28:28;100710.09;;;17.40;68.21
11643;BME280;5877;50.930;6.918;2022-10-22T07:30:55;100538.31;;;17.20;64.76
11643;BME280;5877;50.930;6.918;2022-10-22T07:33:21;100610.69;;;18.25;62.53
11643;BME280;5877;50.930;6.918;2022-10-22T07:35:48;100301.34;;;16.79;60.38
11643;BME280;5877;50.930;6.918;2022-10-22T07:38:15;100494.59;;;18.56;58.84
11643;BME280;5877;50.930;6.918;2022-10-22T07:40:41;100658.41;;;20.23;56.78
11643;BME280;5877;50.930;6.918;2022-10-22T07:43:09;100631.97;;;20.76;54.81
11643;BME280;5877;50.930;6.918;2022-10-22T07:45:36;100620.69;;;21.13;52.70
11643;BME280;5877;50.930;6.918;2022-10-22T07:48:03;100484.59;;;20.60;51.35
11643;BME280;5877;50.930;6.918;2022-10-22T07:50:30;100554.28;;;21.35;50.50
11643;BME280;5877;50.930;6.918;2022-10-22T07:52:57;100496.31;;;21.12;50.33
11643;BME280;5877;50.930;6.918;2022-10-22T07:55:24;100575.81;;;21.44;49.91
11643;BME280;5877;50.930;6.918;2022-10-22T07:57:51;100708.44;;;21.25;52.09
11643;BME280;5877;50.930;6.918;2022-10-22T08:00:18;100600.84;;;19.63;54.35
11643;BME280;5877;50.930;6.918;2022-10-22T08:02:50;100385.88;;;18.44;54.18
11643;BME280;5877;50.930;6.918;2022-10-22T08:05:17;100775.09;;;20.36;55.59
11643;BME280;5877;50.930;6.918;2022-10-22T08:07:44;100773.66;;;19.39;57.67
11643;BME280;5877;50.930;6.918;2022-10-22T08:10:11;100404.56;;;16.53;59.98
11643;BME280;5877;50.930;6.918;2022-10-22T08:12:40;100658.34;;;17.74;61.07
11643;BME280;5877;50.930;6.918;2022-10-22T08:15:08;100498.03;;;16.49;62.02
11643;BME280;5877;50.930;6.918;2022-10-22T08:17:35;100585.00;;;16.84;62.54
11643;BME280;5877;50.930;6.918;2022-10-22T08:20:04;100585.94;;;16.68;63.24
11643;BME280;5877;50.930;6.918;2022-10-22T08:22:31;100703.66;;;17.31;63.47
11643;BME280;5877;50.930;6.918;2022-10-22T08:24:58;100532.88;;;16.04;64.33
11643;BME280;5877;50.930;6.918;2022-10-22T08:27:26;100489.53;;;15.39;65.01
11643;BME280;5877;50.930;6.918;2022-10-22T08:29:52;100794.38;;;17.28;65.98
11643;BME280;5877;50.930;6.918;2022-10-22T08:32:19;100559.28;;;15.55;66.23
11643;BME280;5877;50.930;6.918;2022-10-22T08:34:46;100517.72;;;15.12;66.59
11643;BME280;5877;50.930;6.918;2022-10-22T08:37:13;100540.88;;;15.21;66.75
11643;BME280;5877;50.930;6.918;2022-10-22T08:39:40;100181.28;;;12.80;67.08
11643;BME280;5877;50.930;6.918;2022-10-22T08:50:42;100620.97;;;16.48;64.92
11643;BME280;5877;50.930;6.918;2022-10-22T08:53:24;100658.94;;;16.80;64.32
11643;BME280;5877;50.930;6.918;2022-10-22T08:55:53;100586.97;;;16.40;64.43
11643;BME280;5877;50.930;6.918;2022-10-22T08:58:39;100825.50;;;17.96;63.23
11643;BME280;5877;50.930;6.918;2022-10-22T09:01:18;100836.59;;;17.88;63.69
11643;BME280;5877;50.930;6.918;2022-10-22T09:03:53;100729.66;;;17.29;63.57
11643;BME280;5877;50.930;6.918;2022-10-22T09:06:28;100783.47;;;17.56;63.64
11643;BME280;5877;50.930;6.918;2022-10-22T09:09:48;100841.72;;;18.00;63.64
11643;BME280;5877;50.930;6.918;2022-10-22T09:13:10;100598.63;;;16.39;62.70
11643;BME280;5877;50.930;6.918;2022-10-22T09:16:38;100569.78;;;16.42;62.26
11643;BME280;5877;50.930;6.918;2022-10-22T09:20:15;100846.63;;;18.23;62.61
11643;BME280;5877;50.930;6.918;2022-10-22T09:23:37;100687.41;;;17.22;62.72
11643;BME280;5877;50.930;6.918;2022-10-22T14:48:22;100623.03;;;18.67;52.62
11643;BME280;5877;50.930;6.918;2022-10-22T14:50:49;100889.50;;;20.23;52.28
11643;BME280;5877;50.930;6.918;2022-10-22T14:53:16;100699.38;;;18.87;52.45
11643;BME280;5877;50.930;6.918;2022-10-22T14:55:44;100381.66;;;16.74;52.48
11643;BME280;5877;50.930;6.918;2022-10-22T14:58:13;100797.31;;;19.20;52.56
11643;BME280;5877;50.930;6.918;2022-10-22T15:00:41;100787.19;;;19.07;53.42
11643;BME280;5877;50.930;6.918;2022-10-22T15:03:08;100895.66;;;19.77;53.85
11643;BME280;5877;50.930;6.918;2022-10-22T15:05:39;100577.28;;;17.62;53.55
11643;BME280;5877;50.930;6.918;2022-10-22T15:08:13;100679.25;;;18.28;53.63
11643;BME280;5877;50.930;6.918;2022-10-22T15:10:40;100851.91;;;19.38;53.78
11643;BME280;5877;50.930;6.918;2022-10-22T15:13:07;100673.94;;;18.28;53.27
11643;BME280;5877;50.930;6.918;2022-10-22T15:15:34;100767.72;;;18.91;53.26
11643;BME280;5877;50.930;6.918;2022-10-22T15:18:05;100770.66;;;19.00;53.49
11643;BME280;5877;50.930;6.918;2022-10-22T15:20:32;100417.78;;;16.48;54.09
11643;BME280;5877;50.930;6.918;2022-10-22T15:22:59;100754.34;;;18.66;54.43
11643;BME280;5877;50.930;6.918;2022-10-22T15:25:26;100523.22;;;17.26;54.33
11643;BME280;5877;50.930;6.918;2022-10-22T15:27:53;100896.41;;;19.53;54.84
11643;BME280;5877;50.930;6.918;2022-10-22T15:30:30;100711.13;;;18.28;55.72
11643;BME280;5877;50.930;6.918;2022-10-22T15:32:56;100666.28;;;17.74;55.70
11643;BME280;5877;50.930;6.918;2022-10-22T15:35:26;100700.88;;;17.84;55.96
11643;BME280;5877;50.930;6.918;2022-10-22T15:37:53;100606.47;;;17.14;55.95
11643;BME280;5877;50.930;6.918;2022-10-22T15:40:20;100669.28;;;17.46;56.00
11643;BME280;5877;50.930;6.918;2022-10-22T15:42:47;100450.75;;;15.99;56.34
11643;BME280;5877;50.930;6.918;2022-10-22T15:45:14;100561.84;;;16.69;57.04
11643;BME280;5877;50.930;6.918;2022-10-22T15:47:44;100659.97;;;17.06;57.11
11643;BME280;5877;50.930;6.918;2022-10-22T15:50:13;100812.19;;;17.91;56.84
11643;BME280;5877;50.930;6.918;2022-10-22T15:52:40;100742.03;;;17.50;57.69
11643;BME280;5877;50.930;6.918;2022-10-22T15:55:07;100755.03;;;17.51;57.85
11643;BME280;5877;50.930;6.918;2022-10-22T15:57:36;100588.84;;;16.39;58.17
11643;BME280;5877;50.930;6.918;2022-10-22T16:00:04;100736.97;;;17.16;57.68
11643;BME280;5877;50.930;6.918;2022-10-22T16:02:37;100677.81;;;16.62;58.32
11643;BME280;5877;50.930;6.918;2022-10-22T16:05:04;100671.56;;;16.68;58.63
11643;BME280;5877;50.930;6.918;2022-10-22T16:07:32;100393.41;;;14.85;59.02
11643;BME280;5877;50.930;6.918;2022-10-22T16:09:58;100810.94;;;17.40;59.64
11643;BME280;5877;50.930;6.918;2022-10-22T16:12:26;100596.09;;;16.00;59.35
11643;BME280;5877;50.930;6.918;2022-10-22T16:14:53;100699.72;;;16.52;59.05
11643;BME280;5877;50.930;6.918;2022-10-22T16:17:20;100684.81;;;16.46;59.63
11643;BME280;5877;50.930;6.918;2022-10-22T16:19:47;100686.69;;;16.24;60.80
11643;BME280;5877;50.930;6.918;2022-10-22T16:22:14;100462.00;;;14.58;61.30
11643;BME280;5877;50.930;6.918;2022-10-22T16:24:41;100489.84;;;14.66;62.22
11643;BME280;5877;50.930;6.918;2022-10-22T16:27:09;100675.00;;;15.60;62.57
11643;BME280;5877;50.930;6.918;2022-10-22T16:29:37;100905.94;;;16.94;63.47
11643;BME280;5877;50.930;6.918;2022-10-22T16:32:05;100875.09;;;16.49;63.63
11643;BME280;5877;50.930;6.918;2022-10-22T16:34:31;100890.50;;;16.52;64.26
11643;BME280;5877;50.930;6.918;2022-10-22T16:36:58;100636.75;;;14.83;64.41
11643;BME280;5877;50.930;6.918;2022-10-22T16:39:24;100636.91;;;14.77;64.58
11643;BME280;5877;50.930;6.918;2022-10-22T16:41:51;100847.94;;;16.04;64.75
11643;BME280;5877;50.930;6.918;2022-10-22T16:44:18;100758.13;;;15.47;64.99
11643;BME280;5877;50.930;6.918;2022-10-22T16:46:45;100927.59;;;16.52;64.94
11643;BME280;5877;50.930;6.918;2022-10-22T16:49:11;100920.22;;;16.54;64.86
11643;BME280;5877;50.930;6.918;2022-10-22T16:51:38;100627.94;;;14.61;64.89
11643;BME280;5877;50.930;6.918;2022-10-22T16:54:05;100751.31;;;15.51;64.70
11643;BME280;5877;50.930;6.918;2022-10-22T16:56:37;100928.34;;;16.65;64.78
11643;BME280;5877;50.930;6.918;2022-10-22T16:59:05;100930.50;;;16.68;64.84
11643;BME280;5877;50.930;6.918;2022-10-22T17:01:32;100935.81;;;16.68;64.79
11643;BME280;5877;50.930;6.918;2022-10-22T17:04:05;100682.28;;;15.02;64.82
11643;BME280;5877;50.930;6.918;2022-10-22T17:06:32;100752.19;;;15.40;64.93
11643;BME280;5877;50.930;6.918;2022-10-22T17:08:59;100849.22;;;16.01;64.72
11643;BME280;5877;50.930;6.918;2022-10-22T17:11:26;100653.34;;;14.79;65.25
11643;BME280;5877;50.930;6.918;2022-10-22T17:13:55;100747.44;;;15.25;65.33
11643;BME280;5877;50.930;6.918;2022-10-22T17:16:23;100690.66;;;14.82;65.46
11643;BME280;5877;50.930;6.918;2022-10-22T17:18:52;100728.50;;;15.00;65.75
11643;BME280;5877;50.930;6.918;2022-10-22T17:21:19;100562.31;;;13.84;65.86
11643;BME280;5877;50.930;6.918;2022-10-22T17:23:47;100897.53;;;16.08;66.13
11643;BME280;5877;50.930;6.918;2022-10-22T17:26:18;100642.94;;;14.32;66.39
11643;BME280;5877;50.930;6.918;2022-10-22T17:28:47;100522.97;;;13.43;66.75
11643;BME280;5877;50.930;6.918;2022-10-22T17:33:40;100685.31;;;14.25;67.92
11643;BME280;5877;50.930;6.918;2022-10-22T17:36:08;100781.44;;;14.76;68.56
11643;BME280;5877;50.930;6.918;2022-10-22T17:38:37;100604.47;;;13.44;68.69
11643;BME280;5877;50.930;6.918;2022-10-22T17:41:05;100603.31;;;13.40;68.89
11643;BME280;5877;50.930;6.918;2022-10-22T17:43:36;100662.00;;;13.82;68.87
11643;BME280;5877;50.930;6.918;2022-10-22T17:46:08;100959.16;;;15.58;69.36
11643;BME280;5877;50.930;6.918;2022-10-22T17:48:38;100677.59;;;13.72;69.44
11643;BME280;5877;50.930;6.918;2022-10-22T17:51:07;100766.47;;;14.30;69.87
11643;BME280;5877;50.930;6.918;2022-10-22T17:53:34;100656.97;;;13.57;69.72
11643;BME280;5877;50.930;6.918;2022-10-22T17:56:02;100772.09;;;14.34;69.88
11643;BME280;5877;50.930;6.918;2022-10-22T17:58:35;100614.31;;;13.25;70.15
11643;BME280;5877;50.930;6.918;2022-10-22T18:01:02;100445.31;;;12.17;70.44
11643;BME280;5877;50.930;6.918;2022-10-22T18:03:29;100912.09;;;15.20;70.21
11643;BME280;5877;50.930;6.918;2022-10-22T18:06:04;100737.56;;;14.12;69.97
11643;BME280;5877;50.930;6.918;2022-10-22T18:08:31;100798.25;;;14.58;69.86
11643;BME280;5877;50.930;6.918;2022-10-22T18:10:58;100686.09;;;13.86;69.92
11643;BME280;5877;50.930;6.918;2022-10-22T18:13:25;100907.94;;;15.24;70.29
11643;BME280;5877;50.930;6.918;2022-10-22T18:15:53;100730.47;;;14.01;70.22
11643;BME280;5877;50.930;6.918;2022-10-22T18:18:21;100550.03;;;12.80;70.49
11643;BME280;5877;50.930;6.918;2022-10-22T18:20:49;100615.34;;;13.24;70.77
11643;BME280;5877;50.930;6.918;2022-10-22T18:23:19;100565.38;;;12.83;71.23
11643;BME280;5877;50.930;6.918;2022-10-22T18:25:46;100740.81;;;13.79;71.92
11643;BME280;5877;50.930;6.918;2022-10-22T18:28:16;100604.75;;;12.78;71.83
11643;BME280;5877;50.930;6.918;2022-10-22T18:30:44;100911.03;;;14.70;72.36
11643;BME280;5877;50.930;6.918;2022-10-22T18:33:13;100739.06;;;13.61;72.64
11643;BME280;5877;50.930;6.918;2022-10-22T18:35:40;100758.69;;;13.65;72.73
11643;BME280;5877;50.930;6.918;2022-10-22T18:38:08;100898.53;;;14.42;73.54
11643;BME280;5877;50.930;6.918;2022-10-22T18:40:42;100962.84;;;14.71;74.13
11643;BME280;5877;50.930;6.918;2022-10-22T18:43:10;100614.75;;;12.46;73.99
11643;BME280;5877;50.930;6.918;2022-10-22T18:45:42;100368.44;;;10.95;74.31
11643;BME280;5877;50.930;6.918;2022-10-22T18:48:09;100974.66;;;14.56;74.63
11643;BME280;5877;50.930;6.918;2022-10-22T18:50:36;100822.69;;;13.72;75.33
11643;BME280;5877;50.930;6.918;2022-10-22T18:53:02;100867.91;;;13.87;75.44
11643;BME280;5877;50.930;6.918;2022-10-22T18:55:29;100681.22;;;12.71;75.47
11643;BME280;5877;50.930;6.918;2022-10-22T18:57:56;100961.56;;;14.50;75.95
11643;BME280;5877;50.930;6.918;2022-10-22T19:00:23;100629.09;;;12.31;75.83
11643;BME280;5877;50.930;6.918;2022-10-22T19:02:52;100722.69;;;12.76;76.42
11643;BME280;5877;50.930;6.918;2022-10-22T19:05:20;100350.34;;;10.50;76.35